Flight Track Log - Related Links

Times and Time Zones

All times are in EDT time to prevent confusion due to time zone crossing. See the AWE1940 flight status page for this flight to view local times or setup timezone preferences in your user account.

Time Position Orientation Groundspeed Altitude Reporting Facility
EDT Latitude Longitude Course Direction KTS MPH feet Rate Location/Type
Thu 11:18:19 PM 35.2347 -80.9392 72° East 171 197 1,800  Level Atlanta Center
Thu 11:19:20 PM 35.2822 -80.9219 16° North 210 242 3,500 2,033 Climbing Atlanta Center
Thu 11:20:20 PM 35.2989 -80.8425 76° East 295 339 5,900 2,636 Climbing Atlanta Center
Thu 11:21:00 PM 35.2409 -80.5375 30° Northeast  Level FlightAware Approximate
Thu 11:21:32 PM 35.3464 -80.7414 60° Northeast 289 333 9,300  Level Atlanta Center
Thu 11:22:00 PM 35.3338 -80.4649 72° East  Level FlightAware Approximate
Thu 11:22:32 PM 35.4136 -80.6775 38° Northeast 283 326 11,800  Level Atlanta Center
Thu 11:23:00 PM 35.3706 -80.3256 72° East  Level FlightAware Approximate
Thu 11:23:32 PM 35.4889 -80.6081 37° Northeast 316 364 13,400  Level Atlanta Center
Thu 11:24:32 PM 35.5614 -80.5208 44° Northeast 355 409 15,300 2,000 Climbing Atlanta Center
Thu 11:25:32 PM 35.6381 -80.4256 45° Northeast 380 437 17,400 1,900 Climbing Atlanta Center
Thu 11:26:32 PM 35.7103 -80.3331 46° Northeast 395 455 19,100 2,100 Climbing Atlanta Center
Thu 11:27:32 PM 35.7944 -80.2217 47° Northeast 400 460 21,600 1,950 Climbing Atlanta Center
Thu 11:28:32 PM 35.8703 -80.1156 49° Northeast 406 467 23,000 1,550 Climbing Atlanta Center
Thu 11:29:32 PM 35.9394 -79.9967 54° Northeast 406 467 24,700 1,318 Climbing Atlanta Center
Thu 11:31:25 PM 36.0472 -79.7847 58° Northeast 430 495 26,800 867 Climbing Washington Center
Thu 11:32:25 PM 36.1089 -79.6286 64° Northeast 445 512 27,200 605 Climbing Washington Center
Thu 11:33:24 PM 36.1450 -79.4864 73° East 466 536 28,000 1,210 Climbing Washington Center
Thu 11:34:24 PM 36.1833 -79.3286 73° East 472 543 29,600 1,438 Climbing Washington Center
Thu 11:35:25 PM 36.2239 -79.1581 74° East 472 543 30,900 1,328 Climbing Washington Center
Thu 11:36:26 PM 36.2886 -79.0142 61° Northeast 472 543 32,300 1,059 Climbing Washington Center
Thu 11:37:24 PM 36.3533 -78.8647 62° Northeast 481 554 33,000 350 Climbing Washington Center
Thu 11:38:26 PM 36.4197 -78.7231 60° Northeast 475 547 33,000  Level Washington Center
Thu 11:39:24 PM 36.4881 -78.5811 59° Northeast 475 547 33,000  Level Washington Center
Thu 11:40:25 PM 36.5542 -78.4336 61° Northeast 475 547 33,000  Level Washington Center
Thu 11:41:25 PM 36.6203 -78.2886 60° Northeast 475 547 33,000  Level Washington Center
Thu 11:42:25 PM 36.6772 -78.1583 61° Northeast 475 547 33,000  Level Washington Center
Thu 11:43:26 PM 36.7475 -78.0000 61° Northeast 466 536 33,000  Level Washington Center
Thu 11:44:27 PM 36.8128 -77.8567 60° Northeast 472 543 33,000  Level Washington Center
Thu 11:45:24 PM 36.8781 -77.7106 61° Northeast 472 543 33,000  Level Washington Center
Thu 11:46:24 PM 36.9367 -77.5772 61° Northeast 477 549 33,000  Level Washington Center
Thu 11:47:25 PM 37.0014 -77.4331 61° Northeast 467 537 33,000  Level Washington Center
Thu 11:48:26 PM 37.0661 -77.2864 61° Northeast 472 543 33,000  Level Washington Center
Thu 11:49:26 PM 37.1286 -77.1392 62° Northeast 472 543 33,000  Level Washington Center
Thu 11:50:24 PM 37.1911 -76.9919 62° Northeast 472 543 33,000  Level Washington Center
Thu 11:51:24 PM 37.2553 -76.8494 60° Northeast 467 537 33,000  Level Washington Center
Thu 11:52:25 PM 37.3278 -76.6808 62° Northeast 478 550 33,000  Level Washington Center
Thu 11:53:26 PM 37.3936 -76.5328 61° Northeast 478 550 33,000  Level Washington Center
Thu 11:54:24 PM 37.4572 -76.3819 62° Northeast 478 550 33,000  Level Washington Center
Thu 11:55:25 PM 37.5497 -76.2544 48° Northeast 478 550 33,000  Level Washington Center
Thu 11:55:25 PM 37.5497 -76.2544 48° Northeast 478 550 33,000 -100 Level Washington Center
Thu 11:56:25 PM 37.6650 -76.1558 34° Northeast 490 564 32,900 -100 Descending Washington Center
Thu 11:56:25 PM 37.6650 -76.1558 34° Northeast 490 564 32,900  Level Washington Center
Thu 11:57:25 PM 37.7550 -76.0725 36° Northeast 490 564 32,900  Level Washington Center
Thu 11:57:25 PM 37.7550 -76.0725 36° Northeast 490 564 32,900 102 Level Washington Center
Thu 11:58:24 PM 37.8869 -75.9392 39° Northeast 496 571 33,000 102 Climbing Washington Center
Thu 11:58:24 PM 37.8869 -75.9392 39° Northeast 496 571 33,000  Level Washington Center
Thu 11:59:26 PM 37.9997 -75.8369 36° Northeast 501 577 33,000  Level Washington Center
Fri 12:00:26 AM 38.1106 -75.7289 37° Northeast 501 577 33,000  Level Washington Center
Fri 12:01:27 AM 38.2253 -75.6233 36° Northeast 506 582 33,000 -50 Level Washington Center
Fri 12:02:25 AM 38.3294 -75.5336 34° Northeast 506 582 32,900 -51 Descending Washington Center
Fri 12:03:24 AM 38.4567 -75.4644 23° Northeast 491 565 32,900  Level Washington Center
Fri 12:04:24 AM 38.5878 -75.4164 16° North 491 565 32,900  Level Washington Center
Fri 12:05:24 AM 38.7214 -75.3603 18° North 491 565 32,900  Level Washington Center
Fri 12:06:24 AM 38.8544 -75.2983 20° North 491 565 32,900  Level Washington Center
Fri 12:07:27 AM 38.9858 -75.2444 18° North 497 572 32,900  Level Washington Center
Fri 12:08:25 AM 39.1189 -75.1878 18° North 497 572 32,900  Level Washington Center
Fri 12:09:24 AM 39.2522 -75.1333 18° North 502 578 32,900  Level Washington Center
Fri 12:10:25 AM 39.3725 -75.0439 30° Northeast 496 571 32,900  Level Washington Center
Fri 12:11:25 AM 39.4806 -74.9356 38° Northeast 487 560 32,900  Level Washington Center
Fri 12:12:24 AM 39.5903 -74.8242 38° Northeast 492 566 32,900  Level Washington Center
Fri 12:13:25 AM 39.6997 -74.7122 38° Northeast 497 572 32,900  Level Washington Center
Fri 12:14:18 AM 39.8114 -74.6136 34° Northeast 499 574 32,900  Level New York Center
Fri 12:15:16 AM 39.9189 -74.5058 38° Northeast 493 567 32,900  Level New York Center
Fri 12:16:16 AM 40.0267 -74.3925 39° Northeast 488 562 32,900  Level New York Center
Fri 12:17:15 AM 40.1322 -74.2839 38° Northeast 482 555 32,900  Level New York Center
Fri 12:18:16 AM 40.2517 -74.1922 30° Northeast 482 555 32,900  Level New York Center
Fri 12:19:15 AM 40.3767 -74.1167 25° Northeast 482 555 32,900 -450 Level New York Center
Fri 12:20:16 AM 40.5017 -74.0436 24° Northeast 482 555 32,000 -2,826 Descending New York Center
Fri 12:21:16 AM 40.6308 -73.9650 25° Northeast 492 566 27,200 -2,545 Descending New York Center
Fri 12:23:27 AM 40.8881 -73.7469 33° Northeast 493 567 23,900 -1,319 Descending Boston Center
Fri 12:24:27 AM 40.9811 -73.6222 45° Northeast 477 549 23,000 -500 Descending Boston Center
Fri 12:25:27 AM 41.0781 -73.5194 39° Northeast 470 541 22,900 -650 Descending Boston Center
Fri 12:26:27 AM 41.1950 -73.5047 North 417 480 21,700 -1,850 Descending Boston Center
Fri 12:27:27 AM 41.3094 -73.5261 352° North 401 461 19,200 -1,350 Descending Boston Center
Fri 12:28:27 AM 41.4114 -73.5472 351° North 401 461 19,000 -100 Descending Boston Center
Fri 12:29:27 AM 41.5361 -73.5689 353° North 406 467 19,000 -950 Level Boston Center
Fri 12:30:27 AM 41.6358 -73.5900 351° North 406 467 17,100 -1,750 Descending Boston Center
Fri 12:31:27 AM 41.7586 -73.6117 353° North 406 467 15,500 -1,500 Descending Boston Center
Fri 12:32:07 AM 41.8356 -73.6272 351° North 434 499 14,600 -1,241 Descending Boston Center
Fri 12:32:25 AM 41.8731 -73.6333 353° North 441 507 14,300 -1,291 Descending Boston Center
Fri 12:33:26 AM 41.9897 -73.6522 353° North 425 489 12,900 -1,279 Descending Boston Center
Fri 12:34:27 AM 42.0956 -73.6739 351° North 423 487 11,700 -1,140 Descending Boston Center
Fri 12:35:27 AM 42.1964 -73.6200 22° Northeast 392 451 10,600 -900 Descending Boston Center
Fri 12:36:27 AM 42.2656 -73.5708 28° Northeast 371 427 9,900 -1,190 Descending Boston Center
Fri 12:37:28 AM 42.3725 -73.5081 23° Northeast 306 352 8,200 -1,574 Descending Boston Center
Fri 12:38:29 AM 42.4500 -73.4728 19° North 300 345 6,700 -1,525 Descending Boston Center
Fri 12:39:30 AM 42.5294 -73.4431 15° North 294 338 5,100 -1,041 Descending Boston Center
Fri 12:40:30 AM 42.6083 -73.4614 350° North 280 322 4,600 -545 Descending Boston Center
Fri 12:41:31 AM 42.6894 -73.4881 346° North 279 321 4,000 -496 Descending Boston Center
Fri 12:42:31 AM 42.7600 -73.5231 340° North 273 314 3,600 -496 Descending Boston Center
Fri 12:43:32 AM 42.8178 -73.5892 320° Northwest 264 304 3,000 -295 Descending Boston Center
Fri 12:44:33 AM 42.8733 -73.6556 319° Northwest 262 302 3,000 -248 Level Boston Center
Fri 12:45:33 AM 42.9247 -73.7161 319° Northwest 247 284 2,500 -496 Descending Boston Center
Fri 12:46:34 AM 42.9236 -73.8011 269° West 214 246 2,000 -248 Descending Boston Center
Fri 12:47:34 AM 42.8694 -73.8139 190° South 197 227 2,000 -248 Level Boston Center
Fri 12:48:35 AM 42.8214 -73.8131 179° South 177 204 1,500 -492 Descending Boston Center

Login

Don't have an account? Register now (free) for customized features, flight alerts, and more!